Time;durP1;ratioP1;P1;durP2;ratioP2;P2;SDS_P1;SDS_P2;PMS_P1;PMS_P2;Temp;Humidity;BMP_temperature;BMP_pressure;BME280_temperature;BME280_humidity;BME280_pressure;Samples;Min_cycle;Max_cycle;Signal;HPM_P1;HPM_P2
2022/02/20 00:02:05;;;;;;;13.48;1.40;;;;;;;4.94;100.00;100670.00;5054570;28;20400;-54
2022/02/20 00:04:33;;;;;;;11.00;1.63;;;;;;;4.97;100.00;100668.09;5054484;28;20095;-54
2022/02/20 00:07:02;;;;;;;5.03;1.10;;;;;;;4.90;100.00;100680.53;5054432;28;20049;-53
2022/02/20 00:09:31;;;;;;;11.95;1.65;;;;;;;4.91;100.00;100694.44;5051930;28;20048;-52
2022/02/20 00:11:59;;;;;;;9.30;1.55;;;;;;;4.90;100.00;100704.00;5050675;28;20045;-54
2022/02/20 00:14:28;;;;;;;7.47;1.73;;;;;;;4.89;100.00;100709.28;5054543;28;20041;-55
2022/02/20 00:16:56;;;;;;;11.45;1.85;;;;;;;4.88;100.00;100710.19;5052093;28;20041;-44
2022/02/20 00:19:24;;;;;;;9.95;1.80;;;;;;;4.86;100.00;100715.47;5051190;28;20057;-45
2022/02/20 00:21:52;;;;;;;8.70;1.67;;;;;;;4.86;100.00;100735.47;5052748;28;20400;-54
2022/02/20 00:24:20;;;;;;;5.53;1.48;;;;;;;4.89;100.00;100733.59;5053852;28;20045;-53
2022/02/20 00:26:50;;;;;;;5.85;1.17;;;;;;;4.82;100.00;100741.72;5054251;28;20415;-55
2022/02/20 00:29:18;;;;;;;9.27;1.30;;;;;;;4.81;100.00;100751.28;5053832;28;20045;-53
2022/02/20 00:31:46;;;;;;;11.15;1.35;;;;;;;4.70;100.00;100763.94;5053992;28;20045;-45
2022/02/20 00:34:14;;;;;;;7.75;1.42;;;;;;;4.66;100.00;100772.78;5053559;28;20053;-55
2022/02/20 00:36:42;;;;;;;4.13;1.02;;;;;;;4.59;100.00;100786.97;5053726;28;20102;-54
2022/02/20 00:39:10;;;;;;;8.10;1.88;;;;;;;4.50;100.00;100793.41;5053316;28;20044;-55
2022/02/20 00:41:38;;;;;;;5.45;1.30;;;;;;;4.40;100.00;100798.13;5050387;28;20079;-46
2022/02/20 00:44:08;;;;;;;7.78;1.67;;;;;;;4.34;100.00;100803.59;5051199;28;20415;-44
2022/02/20 00:46:36;;;;;;;6.47;1.50;;;;;;;4.26;100.00;100810.88;5053109;28;20056;-44
2022/02/20 00:49:06;;;;;;;5.53;1.50;;;;;;;4.25;100.00;100819.59;5053637;28;20106;-47
2022/02/20 00:51:35;;;;;;;9.23;1.77;;;;;;;4.23;100.00;100830.91;5053522;28;20051;-44
2022/02/20 00:54:04;;;;;;;6.43;2.00;;;;;;;4.14;100.00;100833.00;5049899;28;20052;-54
2022/02/20 00:56:32;;;;;;;7.00;1.25;;;;;;;4.08;100.00;100844.50;5051822;28;20053;-55
2022/02/20 00:59:01;;;;;;;6.78;1.42;;;;;;;4.17;100.00;100844.16;5053331;28;20033;-55
2022/02/20 01:01:30;;;;;;;4.53;1.30;;;;;;;4.13;100.00;100865.16;5053383;28;20052;-55
2022/02/20 01:03:59;;;;;;;2.78;1.20;;;;;;;4.10;100.00;100880.91;5053264;28;20037;-45
2022/02/20 01:06:27;;;;;;;9.43;1.25;;;;;;;4.10;100.00;100880.91;5053324;28;20526;-55
2022/02/20 01:08:56;;;;;;;5.82;1.02;;;;;;;4.04;100.00;100890.63;5053297;28;20500;-55
2022/02/20 01:11:24;;;;;;;5.63;1.33;;;;;;;4.04;100.00;100905.41;5053188;28;20140;-55
2022/02/20 01:13:52;;;;;;;4.40;1.00;;;;;;;4.06;100.00;100906.19;5053106;28;20063;-55
2022/02/20 01:16:20;;;;;;;3.63;0.88;;;;;;;4.11;100.00;100912.06;5052895;28;20037;-55
2022/02/20 01:18:50;;;;;;;8.68;1.67;;;;;;;4.04;100.00;100905.41;5052409;28;20052;-44
2022/02/20 01:21:18;;;;;;;6.28;1.00;;;;;;;4.12;100.00;100918.97;5049542;28;20037;-55
2022/02/20 01:23:46;;;;;;;5.05;1.13;;;;;;;4.06;100.00;100927.00;5050392;28;20065;-55
2022/02/20 01:26:14;;;;;;;4.38;1.33;;;;;;;4.09;100.00;100929.50;5053035;28;20041;-43
2022/02/20 01:28:42;;;;;;;5.38;1.08;;;;;;;4.07;100.00;100936.50;5051820;28;20368;-54
2022/02/20 01:31:10;;;;;;;6.70;1.17;;;;;;;4.07;100.00;100942.56;5048795;28;20052;-45
2022/02/20 01:33:38;;;;;;;5.60;1.08;;;;;;;4.12;100.00;100946.75;5049470;28;20555;-45
2022/02/20 01:36:09;;;;;;;2.85;1.10;;;;;;;4.04;100.00;100950.47;5053001;28;20561;-55
2022/02/20 01:38:37;;;;;;;5.07;1.38;;;;;;;4.02;100.00;100959.25;5052765;28;20048;-54
2022/02/20 01:41:05;;;;;;;8.57;1.90;;;;;;;4.01;100.00;100950.59;5052814;28;20106;-43
2022/02/20 01:43:34;;;;;;;7.18;1.50;;;;;;;4.01;100.00;100958.41;5052447;28;20057;-43
2022/02/20 01:46:02;;;;;;;7.25;1.45;;;;;;;3.99;100.00;100965.41;5052554;28;20174;-45
2022/02/20 01:48:35;;;;;;;6.32;1.50;;;;;;;4.05;100.00;100974.78;5052591;28;20443;-55
2022/02/20 01:51:03;;;;;;;6.38;1.98;;;;;;;4.00;100.00;100974.91;5052583;28;20126;-45
2022/02/20 01:53:33;;;;;;;2.50;1.13;;;;;;;4.05;100.00;100979.97;5051021;28;20076;-44
2022/02/20 01:56:02;;;;;;;6.80;1.50;;;;;;;4.04;100.00;100989.53;5049508;28;20435;-46
2022/02/20 01:58:30;;;;;;;9.75;1.60;;;;;;;4.04;100.00;100988.69;5049264;28;20049;-56
2022/02/20 02:01:00;;;;;;;5.20;1.40;;;;;;;4.09;100.00;100985.91;5052534;28;20041;-56
2022/02/20 02:03:29;;;;;;;8.32;1.63;;;;;;;4.12;100.00;100997.06;5052314;28;20048;-44
2022/02/20 02:05:57;;;;;;;7.93;1.30;;;;;;;4.09;100.00;100991.97;5052271;28;20488;-55
2022/02/20 02:08:25;;;;;;;3.85;1.30;;;;;;;4.16;100.00;100995.19;5049414;28;20048;-44
2022/02/20 02:10:55;;;;;;;5.55;1.10;;;;;;;4.14;100.00;100994.41;5048633;28;20045;-45
2022/02/20 02:13:23;;;;;;;9.20;1.65;;;;;;;4.14;100.00;101010.88;5052180;28;20056;-44
2022/02/20 02:15:52;;;;;;;7.82;1.17;;;;;;;4.11;100.00;101008.38;5052121;28;20044;-56
2022/02/20 02:18:21;;;;;;;6.20;1.20;;;;;;;4.12;100.00;101004.88;5052015;28;20114;-48
2022/02/20 02:20:49;;;;;;;4.80;1.10;;;;;;;4.11;100.00;101010.16;5052338;28;20384;-54
2022/02/20 02:23:19;;;;;;;3.22;1.15;;;;;;;4.06;100.00;101005.09;5052267;28;20049;-54
2022/02/20 02:25:50;;;;;;;1.63;0.90;;;;;;;4.07;100.00;101012.84;5051227;28;20132;-55
2022/02/20 02:28:18;;;;;;;4.25;0.82;;;;;;;4.11;100.00;101016.19;5048519;28;20045;-55
2022/02/20 02:30:47;;;;;;;3.33;0.90;;;;;;;4.11;100.00;101012.75;5050753;28;20064;-55
2022/02/20 02:33:26;;;;;;;3.45;1.10;;;;;;;4.10;100.00;101014.47;5049259;28;20053;-54
2022/02/20 02:35:54;;;;;;;3.65;0.93;;;;;;;4.13;100.00;101022.22;5048188;28;20049;-44
2022/02/20 02:38:26;;;;;;;3.95;1.20;;;;;;;4.13;100.00;101026.53;5052014;28;20045;-56
2022/02/20 02:40:56;;;;;;;7.85;2.85;;;;;;;4.14;100.00;101029.09;5052053;28;20396;-44
2022/02/20 02:43:24;;;;;;;4.18;1.30;;;;;;;4.17;100.00;101025.53;5049451;28;20065;-55
2022/02/20 02:45:52;;;;;;;2.13;1.00;;;;;;;4.18;100.00;101022.88;5045561;28;20454;-55
2022/02/20 02:48:21;;;;;;;6.63;1.58;;;;;;;4.23;100.00;101015.75;5050927;28;20103;-44
2022/02/20 02:50:49;;;;;;;6.47;1.85;;;;;;;4.25;100.00;101020.91;5051811;28;20111;-43
2022/02/20 02:53:17;;;;;;;3.25;1.75;;;;;;;4.23;100.00;101025.31;5052032;28;20061;-44
2022/02/20 02:55:48;;;;;;;8.75;1.60;;;;;;;4.23;100.00;101020.13;5051541;28;20049;-46
2022/02/20 02:58:20;;;;;;;4.88;1.60;;;;;;;4.27;100.00;101013.03;5051605;28;20051;-56
2022/02/20 03:00:49;;;;;;;4.93;1.33;;;;;;;4.28;100.00;101009.53;5051622;28;20049;-45
2022/02/20 03:03:20;;;;;;;4.35;1.20;;;;;;;4.26;100.00;101009.59;5050731;28;20042;-55
2022/02/20 03:05:49;;;;;;;4.13;1.30;;;;;;;4.21;100.00;101021.91;5048021;28;20509;-44
2022/02/20 03:08:17;;;;;;;5.35;1.23;;;;;;;4.21;100.00;101037.53;5050231;28;20095;-45
2022/02/20 03:10:46;;;;;;;4.72;1.20;;;;;;;4.19;100.00;101045.41;5052142;28;20056;-45
2022/02/20 03:13:14;;;;;;;3.58;1.30;;;;;;;4.19;100.00;101045.41;5051773;28;20114;-55
2022/02/20 03:15:42;;;;;;;2.97;0.90;;;;;;;4.20;100.00;101051.47;5055417;28;20052;-56
2022/02/20 03:18:10;;;;;;;4.18;1.20;;;;;;;4.15;100.00;101050.78;5055485;28;20068;-55
2022/02/20 03:20:38;;;;;;;4.50;0.93;;;;;;;4.14;100.00;101055.13;5054153;28;20068;-45
2022/02/20 03:23:06;;;;;;;2.72;0.80;;;;;;;4.20;100.00;101047.13;5052842;28;20045;-54
2022/02/20 03:25:34;;;;;;;2.60;0.90;;;;;;;4.22;100.00;101047.88;5051744;28;20049;-55
2022/02/20 03:28:04;;;;;;;1.88;0.80;;;;;;;4.22;100.00;101044.44;5054265;28;20059;-44
2022/02/20 03:30:33;;;;;;;5.68;1.00;;;;;;;4.18;100.00;101030.69;5051236;28;20049;-54
2022/02/20 03:33:01;;;;;;;3.17;0.98;;;;;;;4.23;100.00;101025.31;5051980;28;20454;-55
2022/02/20 03:35:29;;;;;;;4.45;0.82;;;;;;;4.20;100.00;101015.03;5054973;28;20542;-43
2022/02/20 03:37:57;;;;;;;1.70;0.90;;;;;;;4.22;100.00;101015.81;5051017;28;20060;-43
2022/02/20 03:40:25;;;;;;;2.97;0.90;;;;;;;4.20;100.00;101023.69;5051258;28;20041;-44
2022/02/20 03:42:53;;;;;;;3.63;1.13;;;;;;;4.20;100.00;101025.44;5054488;28;20057;-48
2022/02/20 03:45:23;;;;;;;4.43;1.02;;;;;;;4.24;100.00;101037.44;5054537;28;20462;-55
2022/02/20 03:47:51;;;;;;;4.18;0.82;;;;;;;4.27;100.00;101036.47;5054606;28;20041;-54
2022/02/20 03:50:19;;;;;;;3.65;0.88;;;;;;;4.22;100.00;101029.66;5054474;28;20067;-52
2022/02/20 03:52:48;;;;;;;2.78;0.90;;;;;;;4.26;100.00;101032.19;5054397;28;20384;-55
2022/02/20 03:55:17;;;;;;;2.15;1.00;;;;;;;4.25;100.00;101033.09;5054148;28;20045;-53
2022/02/20 03:57:46;;;;;;;3.15;0.70;;;;;;;4.20;100.00;101034.09;5054580;28;20073;-44
2022/02/20 04:00:18;;;;;;;6.97;1.35;;;;;;;4.11;100.00;101026.59;5051773;28;20763;-55
2022/02/20 04:02:47;;;;;;;3.85;1.00;;;;;;;4.12;100.00;101017.03;5049988;28;20051;-43
2022/02/20 04:05:17;;;;;;;4.68;1.00;;;;;;;4.10;100.00;101014.47;5053966;28;20519;-43
2022/02/20 04:07:45;;;;;;;5.10;1.00;;;;;;;4.12;100.00;101007.47;5053016;28;20048;-44
2022/02/20 04:10:14;;;;;;;2.70;1.10;;;;;;;4.01;100.00;100997.44;5054474;28;20396;-47
2022/02/20 04:12:42;;;;;;;7.00;1.20;;;;;;;4.01;100.00;101000.06;5054350;28;20045;-47
2022/02/20 04:15:11;;;;;;;3.03;0.82;;;;;;;3.99;100.00;101003.59;5054559;28;20041;-56
2022/02/20 04:17:40;;;;;;;8.68;1.23;;;;;;;4.04;100.00;101005.13;5054343;28;20041;-43
2022/02/20 04:20:12;;;;;;;7.20;1.08;;;;;;;4.11;100.00;101008.38;5054253;28;20045;-54
2022/02/20 04:22:40;;;;;;;2.80;0.80;;;;;;;4.09;100.00;100996.31;5053461;28;20112;-43
2022/02/20 04:25:10;;;;;;;2.92;0.80;;;;;;;4.04;100.00;100993.91;5054312;28;20461;-48
2022/02/20 04:27:38;;;;;;;3.47;1.05;;;;;;;4.01;100.00;101001.81;5054103;28;20099;-56
2022/02/20 04:30:08;;;;;;;4.05;1.30;;;;;;;4.05;100.00;100990.41;5053662;28;20053;-47
2022/02/20 04:32:36;;;;;;;4.43;1.38;;;;;;;4.04;100.00;100991.28;5053668;28;20139;-44
2022/02/20 04:35:05;;;;;;;4.05;1.10;;;;;;;4.12;100.00;100986.66;5053564;28;20052;-44
2022/02/20 04:37:35;;;;;;;5.25;1.33;;;;;;;4.05;100.00;100985.19;5053364;28;20053;-55
2022/02/20 04:40:04;;;;;;;4.32;1.40;;;;;;;4.05;100.00;100982.59;5053780;28;20610;-54
2022/02/20 04:42:32;;;;;;;4.97;1.40;;;;;;;3.98;100.00;100979.34;5052995;28;20499;-54
2022/02/20 04:45:00;;;;;;;6.15;1.50;;;;;;;3.95;100.00;100981.19;5053166;28;20503;-55
2022/02/20 04:47:29;;;;;;;5.03;2.05;;;;;;;4.02;100.00;100959.25;5048755;28;20053;-55
2022/02/20 04:49:57;;;;;;;7.00;1.63;;;;;;;4.07;100.00;100963.38;5051191;28;20511;-53
2022/02/20 04:52:27;;;;;;;6.78;1.50;;;;;;;4.04;100.00;100960.06;5053639;28;20431;-53
2022/02/20 04:54:56;;;;;;;7.22;1.80;;;;;;;3.99;100.00;100952.41;5051204;28;20052;-55
2022/02/20 04:57:25;;;;;;;7.30;1.50;;;;;;;4.01;100.00;100948.00;5050037;28;20056;-54
2022/02/20 04:59:55;;;;;;;5.75;1.70;;;;;;;4.01;100.00;100948.00;5053033;28;20052;-54
2022/02/20 05:02:24;;;;;;;9.68;2.30;;;;;;;4.03;100.00;100950.53;5051981;28;20515;-54
2022/02/20 05:04:52;;;;;;;5.93;1.75;;;;;;;3.99;100.00;100947.19;5051334;28;20675;-55
2022/02/20 05:07:20;;;;;;;7.20;1.85;;;;;;;3.98;100.00;100932.50;5049692;28;20041;-55
2022/02/20 05:09:48;;;;;;;7.45;2.05;;;;;;;3.96;100.00;100918.69;5052352;28;20510;-53
2022/02/20 05:12:18;;;;;;;6.80;2.67;;;;;;;3.96;100.00;100910.88;5050013;28;20045;-55
2022/02/20 05:14:46;;;;;;;10.82;2.38;;;;;;;3.91;100.00;100902.38;5050757;28;20396;-55
2022/02/20 05:17:16;;;;;;;10.05;3.00;;;;;;;3.95;100.00;100888.34;5050899;28;20045;-54
2022/02/20 05:19:44;;;;;;;8.05;2.70;;;;;;;3.88;100.00;100884.28;5050208;28;20056;-55
2022/02/20 05:22:12;;;;;;;8.75;2.53;;;;;;;3.90;100.00;100882.50;5051921;28;20051;-54
2022/02/20 05:24:40;;;;;;;10.15;2.88;;;;;;;3.83;100.00;100871.47;5052853;28;20115;-53
2022/02/20 05:27:08;;;;;;;9.10;2.92;;;;;;;3.83;100.00;100875.78;5049434;28;20476;-54
2022/02/20 05:29:38;;;;;;;10.10;3.67;;;;;;;3.76;100.00;100869.97;5050266;28;20484;-53
2022/02/20 05:32:06;;;;;;;11.00;4.38;;;;;;;3.88;100.00;100868.66;5052438;28;20044;-52
2022/02/20 05:34:34;;;;;;;13.18;4.20;;;;;;;3.87;100.00;100848.75;5052672;28;20431;-52
2022/02/20 05:37:02;;;;;;;16.15;5.43;;;;;;;3.82;100.00;100841.13;5052524;28;20049;-54
2022/02/20 05:39:30;;;;;;;16.85;5.18;;;;;;;3.80;100.00;100829.91;5052746;28;20043;-48
2022/02/20 05:41:58;;;;;;;12.95;5.75;;;;;;;3.79;100.00;100807.44;5052714;28;20423;-52
2022/02/20 05:44:27;;;;;;;15.02;5.53;;;;;;;3.71;100.00;100797.31;5052317;28;20049;-51
2022/02/20 05:46:56;;;;;;;17.23;6.63;;;;;;;3.68;100.00;100787.00;5052600;28;20053;-53
2022/02/20 05:49:24;;;;;;;13.30;6.43;;;;;;;3.68;100.00;100778.34;5052446;28;20049;-53
2022/02/20 05:51:52;;;;;;;18.30;6.72;;;;;;;3.60;100.00;100763.06;5052275;28;20040;-50
2022/02/20 05:54:20;;;;;;;22.30;7.88;;;;;;;3.62;100.00;100752.59;5052389;28;20048;-55
2022/02/20 05:56:49;;;;;;;15.85;6.32;;;;;;;3.71;100.00;100732.28;5052321;28;20044;-54
2022/02/20 05:59:18;;;;;;;14.45;6.93;;;;;;;3.67;100.00;100724.66;5052394;28;20040;-51
2022/02/20 06:01:46;;;;;;;15.40;6.63;;;;;;;3.60;100.00;100721.44;5052372;28;20041;-44
2022/02/20 06:04:15;;;;;;;17.00;6.22;;;;;;;3.64;100.00;100704.81;5052390;28;20048;-54
2022/02/20 06:06:43;;;;;;;19.65;6.50;;;;;;;3.61;100.00;100691.91;5052192;28;20510;-53
2022/02/20 06:09:11;;;;;;;14.95;6.53;;;;;;;3.66;100.00;100682.16;5052214;28;20041;-45
2022/02/20 06:11:39;;;;;;;13.45;6.25;;;;;;;3.60;100.00;100679.81;5050494;28;20473;-48
2022/02/20 06:14:07;;;;;;;14.88;5.95;;;;;;;3.66;100.00;100689.13;5048552;28;20665;-44
2022/02/20 06:16:36;;;;;;;17.13;5.82;;;;;;;3.65;100.00;100677.03;5051295;28;20053;-54
2022/02/20 06:19:04;;;;;;;16.00;6.65;;;;;;;3.67;100.00;100668.25;5048477;28;20442;-53
2022/02/20 06:21:33;;;;;;;17.85;6.40;;;;;;;3.71;100.00;100671.59;5047931;28;20057;-45
2022/02/20 06:24:01;;;;;;;21.15;6.97;;;;;;;3.71;100.00;100661.19;5052150;28;20045;-53
2022/02/20 06:26:29;;;;;;;15.30;7.38;;;;;;;3.71;100.00;100669.00;5050004;28;20095;-49
2022/02/20 06:28:57;;;;;;;23.95;7.28;;;;;;;3.73;100.00;100656.75;5048235;28;20416;-45
2022/02/20 06:31:25;;;;;;;16.42;6.45;;;;;;;3.72;100.00;100652.47;5051776;28;20550;-43
2022/02/20 06:33:54;;;;;;;17.42;7.07;;;;;;;3.77;100.00;100657.50;5051792;28;20055;-53
2022/02/20 06:36:23;;;;;;;17.48;7.03;;;;;;;3.89;100.00;100651.81;5051905;28;20434;-54
2022/02/20 06:38:52;;;;;;;25.85;7.28;;;;;;;3.93;100.00;100649.91;5048326;28;20132;-53
2022/02/20 06:41:20;;;;;;;19.10;6.32;;;;;;;4.02;100.00;100636.53;5048775;28;20041;-55
2022/02/20 06:43:48;;;;;;;21.40;6.15;;;;;;;4.10;100.00;100626.66;5051191;28;20068;-44
2022/02/20 06:46:16;;;;;;;25.95;7.97;;;;;;;4.15;100.00;100627.31;5051114;28;20128;-54
2022/02/20 06:48:44;;;;;;;21.05;6.13;;;;;;;4.21;100.00;100626.19;5053277;28;20048;-46
2022/02/20 06:51:12;;;;;;;18.63;6.07;;;;;;;4.28;100.00;100632.00;5055855;28;20041;-45
2022/02/20 06:53:41;;;;;;;20.10;6.32;;;;;;;4.40;100.00;100618.44;5056107;28;20071;-55
2022/02/20 06:56:10;;;;;;;21.90;7.07;;;;;;;4.39;100.00;100604.59;5054900;28;20048;-53
2022/02/20 06:58:38;;;;;;;16.50;5.53;;;;;;;4.45;100.00;100613.06;5055946;28;20061;-53
2022/02/20 07:01:06;;;;;;;17.98;6.20;;;;;;;4.51;100.00;100624.06;5054473;28;20591;-47
2022/02/20 07:03:34;;;;;;;19.73;5.55;;;;;;;4.55;100.00;100623.03;5052844;28;20044;-43
2022/02/20 07:06:03;;;;;;;22.08;5.95;;;;;;;4.65;100.00;100606.97;5051992;28;20084;-53
2022/02/20 07:08:31;;;;;;;17.50;5.63;;;;;;;4.69;100.00;100588.53;5054225;28;20045;-44
2022/02/20 07:10:59;;;;;;;13.45;4.75;;;;;;;4.76;100.00;100607.34;5055559;28;20048;-49
2022/02/20 07:13:29;;;;;;;18.98;5.47;;;;;;;4.82;100.00;100616.66;5055512;28;20098;-46
2022/02/20 07:15:57;;;;;;;16.73;5.43;;;;;;;4.89;100.00;100615.44;5055652;28;20045;-47
2022/02/20 07:18:25;;;;;;;16.98;5.60;;;;;;;4.94;100.00;100599.63;5055418;28;20429;-45
2022/02/20 07:20:53;;;;;;;19.45;5.57;;;;;;;5.01;100.00;100596.66;5055616;28;20480;-48
2022/02/20 07:23:21;;;;;;;20.48;5.18;;;;;;;5.04;100.00;100595.66;5055235;28;20107;-46
2022/02/20 07:25:49;;;;;;;17.52;4.80;;;;;;;5.12;100.00;100590.13;5055367;28;20377;-54
2022/02/20 07:28:17;;;;;;;21.92;4.60;;;;;;;5.17;100.00;100586.38;5055141;28;20041;-54
2022/02/20 07:30:47;;;;;;;22.05;4.82;;;;;;;5.26;100.00;100585.09;5055107;28;20521;-45
2022/02/20 07:33:16;;;;;;;17.42;4.95;;;;;;;5.32;100.00;100589.19;5055345;28;20056;-46
2022/02/20 07:35:44;;;;;;;18.98;4.47;;;;;;;5.34;100.00;100589.94;5055124;28;20098;-53
2022/02/20 07:38:12;;;;;;;13.07;4.15;;;;;;;5.44;100.00;100588.59;5054446;28;20083;-53
2022/02/20 07:40:40;;;;;;;17.58;4.28;;;;;;;5.50;100.00;100570.03;5051842;28;20049;-52
2022/02/20 07:43:08;;;;;;;18.88;3.90;;;;;;;5.56;100.00;100577.56;5052626;28;20073;-54
2022/02/20 07:45:36;;;;;;;15.95;3.72;;;;;;;5.57;100.00;100576.63;5054870;28;20049;-45
2022/02/20 07:48:06;;;;;;;11.52;3.60;;;;;;;5.65;100.00;100560.63;5054786;28;20491;-54
2022/02/20 07:50:36;;;;;;;16.92;4.07;;;;;;;5.66;100.00;100561.44;5054596;28;20507;-46
2022/02/20 07:53:05;;;;;;;13.80;4.05;;;;;;;5.77;100.00;100548.75;5054086;28;20593;-51
2022/02/20 07:55:34;;;;;;;21.40;4.15;;;;;;;5.86;100.00;100548.28;5051587;28;20099;-44
2022/02/20 07:58:03;;;;;;;15.95;4.25;;;;;;;6.00;100.00;100549.38;5052657;28;20496;-45
2022/02/20 08:00:31;;;;;;;11.82;3.63;;;;;;;6.01;100.00;100538.88;5054635;28;20045;-53
2022/02/20 08:03:02;;;;;;;12.98;3.45;;;;;;;6.08;100.00;100539.38;5054494;28;20119;-49
2022/02/20 08:05:32;;;;;;;13.32;3.88;;;;;;;6.12;100.00;100542.69;5051527;28;20049;-53
2022/02/20 08:08:00;;;;;;;13.38;3.65;;;;;;;6.24;100.00;100529.84;5052327;28;20049;-44
2022/02/20 08:10:28;;;;;;;11.55;3.38;;;;;;;6.26;100.00;100527.16;5052702;28;20048;-44
2022/02/20 08:12:56;;;;;;;12.25;3.40;;;;;;;6.37;100.00;100526.59;5051180;28;20475;-45
2022/02/20 08:15:25;;;;;;;10.82;3.40;;;;;;;6.42;100.00;100514.97;5053643;28;20068;-46
2022/02/20 08:17:53;;;;;;;11.15;3.45;;;;;;;6.44;100.00;100514.88;5052805;28;20369;-46
2022/02/20 08:20:21;;;;;;;9.23;3.25;;;;;;;6.52;100.00;100504.03;5053954;28;20048;-54
2022/02/20 08:22:51;;;;;;;9.48;3.40;;;;;;;6.67;100.00;100490.16;5054407;28;20044;-44
2022/02/20 08:25:19;;;;;;;7.70;3.22;;;;;;;6.73;100.00;100484.56;5052887;28;20066;-54
2022/02/20 08:27:51;;;;;;;10.45;2.90;;;;;;;6.80;100.00;100489.47;5054031;28;20120;-54
2022/02/20 08:30:19;;;;;;;9.80;3.33;;;;;;;6.89;100.00;100487.19;5050033;28;20053;-47
2022/02/20 08:32:47;;;;;;;9.40;3.17;;;;;;;6.93;100.00;100495.72;5050283;28;20041;-45
2022/02/20 08:35:15;;;;;;;5.72;2.80;;;;;;;6.99;100.00;100497.97;5054064;28;20040;-45
2022/02/20 08:37:46;;;;;;;10.98;3.22;;;;;;;7.02;100.00;100499.56;5051367;28;20049;-55
2022/02/20 08:40:18;;;;;;;9.23;3.10;;;;;;;7.05;100.00;100494.19;5049790;28;20056;-50
2022/02/20 08:42:46;;;;;;;10.30;3.37;;;;;;;7.13;100.00;100494.59;5052969;28;20041;-54
2022/02/20 08:45:17;;;;;;;8.65;3.60;;;;;;;7.16;100.00;100510.13;5053817;28;20489;-45
2022/02/20 08:47:46;;;;;;;6.88;3.40;;;;;;;7.25;100.00;100496.53;5053773;28;20048;-44
2022/02/20 08:50:15;;;;;;;9.95;3.60;;;;;;;7.28;100.00;100498.97;5053963;28;20057;-44
2022/02/20 08:52:45;;;;;;;11.80;3.78;;;;;;;7.31;100.00;100497.09;5053634;28;20073;-48
2022/02/20 08:55:16;;;;;;;7.78;3.65;;;;;;;7.39;100.00;100497.50;5053200;28;20523;-55
2022/02/20 08:57:44;;;;;;;9.95;4.15;;;;;;;7.43;100.00;100496.38;5049871;28;20056;-53
2022/02/20 09:00:14;;;;;;;10.68;3.85;;;;;;;7.53;100.00;100497.56;5051275;28;20052;-44
2022/02/20 09:02:42;;;;;;;11.40;4.95;;;;;;;7.54;100.00;100501.00;5053296;28;20730;-54
2022/02/20 09:05:11;;;;;;;11.45;4.03;;;;;;;7.51;100.00;100502.03;5053608;28;20506;-50
2022/02/20 09:07:39;;;;;;;10.73;4.72;;;;;;;7.53;100.00;100484.47;5052414;28;20509;-55
2022/02/20 09:10:09;;;;;;;11.93;4.50;;;;;;;7.65;100.00;100484.66;5049106;28;20643;-44
2022/02/20 09:12:40;;;;;;;16.20;5.07;;;;;;;7.68;100.00;100476.66;5050523;28;20555;-55
2022/02/20 09:15:10;;;;;;;13.32;5.45;;;;;;;7.70;100.00;100487.88;5053266;28;20053;-55
2022/02/20 09:17:40;;;;;;;15.05;5.60;;;;;;;7.70;100.00;100488.72;5052899;28;20462;-44
2022/02/20 09:20:10;;;;;;;15.10;5.43;;;;;;;7.79;100.00;100469.84;5052785;28;20094;-49
2022/02/20 09:22:41;;;;;;;16.13;7.07;;;;;;;7.84;100.00;100469.59;5052826;28;20049;-57
2022/02/20 09:25:10;;;;;;;13.73;6.30;;;;;;;7.97;100.00;100476.72;5053117;28;20079;-55
2022/02/20 09:27:42;;;;;;;17.52;6.38;;;;;;;8.01;100.00;100470.34;5052671;28;20381;-55
2022/02/20 09:30:11;;;;;;;16.13;6.57;;;;;;;8.04;100.00;100462.28;5052727;28;20053;-47
2022/02/20 09:32:39;;;;;;;16.88;7.85;;;;;;;8.10;100.00;100459.31;5051401;28;20041;-45
2022/02/20 09:35:08;;;;;;;17.20;6.88;;;;;;;8.15;100.00;100457.25;5048840;28;20049;-60
2022/02/20 09:37:36;;;;;;;17.92;7.80;;;;;;;8.18;100.00;100449.22;5050061;28;20053;-54
2022/02/20 09:40:06;;;;;;;14.88;6.53;;;;;;;8.20;100.00;100444.72;5050906;28;20404;-54
2022/02/20 09:42:34;;;;;;;23.58;8.00;;;;;;;8.19;100.00;100448.25;5047849;28;20059;-43
2022/02/20 09:45:04;;;;;;;18.42;6.72;;;;;;;8.28;100.00;100447.69;5051281;28;20067;-46
2022/02/20 09:47:39;;;;;;;19.85;6.78;;;;;;;8.33;100.00;100454.44;5052692;28;20049;-48
2022/02/20 09:50:08;;;;;;;15.88;6.40;;;;;;;8.41;100.00;100465.28;5052506;28;20045;-54
2022/02/20 09:52:37;;;;;;;21.88;7.22;;;;;;;8.41;100.00;100453.03;5052386;28;20372;-44
2022/02/20 09:55:06;;;;;;;17.20;8.20;;;;;;;8.48;100.00;100456.16;5051127;28;20053;-56
2022/02/20 09:57:34;;;;;;;17.35;7.15;;;;;;;8.57;100.00;100452.91;5052398;28;20107;-54
2022/02/20 10:00:05;;;;;;;15.82;6.72;;;;;;;8.58;100.00;100452.00;5048023;28;20049;-43
2022/02/20 10:02:40;;;;;;;19.52;7.45;;;;;;;8.64;100.00;100432.41;5047658;28;20049;-42
2022/02/20 10:05:16;;;;;;;18.75;7.05;;;;;;;8.66;100.00;100448.03;5052135;28;20115;-42
2022/02/20 10:07:45;;;;;;;20.75;6.60;;;;;;;8.73;100.00;100452.81;5050642;28;20072;-48
2022/02/20 10:10:16;;;;;;;17.88;6.07;;;;;;;8.81;100.00;100447.09;5051547;28;20049;-46
2022/02/20 10:12:46;;;;;;;22.58;6.38;;;;;;;8.83;100.00;100446.97;5080916;28;20072;-43
2022/02/20 10:15:30;;;;;;;21.88;7.35;;;;;;;8.85;100.00;100442.47;5049622;28;20053;-46
2022/02/20 10:18:00;;;;;;;19.60;6.97;;;;;;;8.85;100.00;100435.44;5049146;28;20579;-54
2022/02/20 10:20:28;;;;;;;20.25;6.78;;;;;;;8.86;100.00;100431.03;5047568;28;20480;-55
2022/02/20 10:22:56;;;;;;;21.38;6.35;;;;;;;8.88;100.00;100435.25;5051720;28;20069;-54
2022/02/20 10:25:24;;;;;;;22.67;6.60;;;;;;;8.88;100.00;100430.00;5050895;28;20087;-54
2022/02/20 10:27:54;;;;;;;22.85;7.03;;;;;;;8.87;100.00;100433.56;5052156;28;20110;-52
2022/02/20 10:30:25;;;;;;;18.92;6.97;;;;;;;8.89;100.00;100444.81;5052118;28;20392;-55
2022/02/20 10:33:07;;;;;;;19.52;6.95;;;;;;;8.93;100.00;100441.03;5048228;28;20053;-52
2022/02/20 10:35:37;;;;;;;22.23;6.88;;;;;;;8.92;100.00;100439.34;5048716;28;20936;-54
2022/02/20 10:38:11;;;;;;;25.33;6.90;;;;;;;9.03;100.00;100443.91;5052098;28;20044;-55
2022/02/20 10:40:43;;;;;;;22.23;6.25;;;;;;;9.02;100.00;100450.09;5051758;28;20491;-54
2022/02/20 10:43:25;;;;;;;25.75;6.55;;;;;;;9.07;100.00;100458.50;5052006;28;20480;-56
2022/02/20 10:46:06;;;;;;;21.83;5.20;;;;;;;9.17;100.00;100453.50;5047331;28;20049;-55
2022/02/20 10:48:40;;;;;;;27.92;6.15;;;;;;;9.10;100.00;100452.22;5048764;28;20048;-57
2022/02/20 10:51:09;;;;;;;27.73;6.03;;;;;;;9.08;100.00;100462.81;5050615;28;20060;-56
2022/02/20 10:53:37;;;;;;;21.80;5.25;;;;;;;9.14;100.00;100456.31;5051822;28;20049;-55
2022/02/20 10:56:06;;;;;;;22.25;5.35;;;;;;;9.15;100.00;100452.78;5048504;28;20094;-55
2022/02/20 10:58:41;;;;;;;24.90;6.07;;;;;;;9.19;100.00;100459.50;5048442;28;20048;-55
2022/02/20 11:01:20;;;;;;;18.35;5.93;;;;;;;9.18;100.00;100446.47;5051683;28;20135;-55
2022/02/20 11:03:50;;;;;;;22.02;5.93;;;;;;;9.16;100.00;100433.44;5051662;28;20574;-56
2022/02/20 11:06:19;;;;;;;30.48;6.50;;;;;;;9.15;100.00;100444.91;5051846;28;20051;-56
2022/02/20 11:08:47;;;;;;;24.02;6.07;;;;;;;9.16;100.00;100453.59;5051509;28;20057;-56
2022/02/20 11:14:02;;;;;;;23.70;6.25;;;;;;;9.26;100.00;100437.16;5049366;28;20048;-54
2022/02/20 11:16:32;;;;;;;30.20;6.57;;;;;;;9.26;100.00;100439.78;5051554;28;20072;-56
2022/02/20 11:19:05;;;;;;;20.77;5.55;;;;;;;9.26;100.00;100434.53;5051940;28;20041;-53
2022/02/20 11:21:34;;;;;;;;;;;;;;;9.22;100.00;100448.78;5051999;28;20064;-54
2022/02/20 11:24:05;;;;;;;24.75;4.82;;;;;;;9.30;100.00;100435.19;5049994;28;19925;-55
2022/02/20 11:26:36;;;;;;;22.20;4.70;;;;;;;9.33;100.00;100429.72;5047518;28;20048;-56
2022/02/20 11:29:05;;;;;;;21.55;4.60;;;;;;;9.33;100.00;100424.47;5050143;28;20491;-56
2022/02/20 11:31:34;;;;;;;23.63;4.75;;;;;;;9.29;100.00;100418.56;5053637;28;20041;-58
2022/02/20 11:34:06;;;;;;;21.60;5.07;;;;;;;9.29;100.00;100423.81;5058640;28;20514;-56